createdAt,value
2023-01-22T00:00:14.823Z,8.78
2023-01-22T00:02:44.954Z,8.75
2023-01-22T00:04:55.310Z,8.73
2023-01-22T00:07:05.554Z,8.70
2023-01-22T00:09:16.229Z,8.68
2023-01-22T00:11:26.145Z,8.64
2023-01-22T00:13:37.226Z,8.63
2023-01-22T00:15:47.155Z,8.62
2023-01-22T00:17:57.206Z,8.62
2023-01-22T00:20:08.046Z,8.56
2023-01-22T00:22:20.328Z,8.55
2023-01-22T00:24:30.709Z,8.57
2023-01-22T00:26:41.550Z,8.57
2023-01-22T00:28:52.388Z,8.56
2023-01-22T00:31:09.060Z,8.53
2023-01-22T00:33:19.661Z,8.51
2023-01-22T00:35:30.278Z,8.49
2023-01-22T00:37:41.710Z,8.49
2023-01-22T00:39:52.495Z,8.47
2023-01-22T00:42:04.291Z,8.48
2023-01-22T00:44:14.367Z,8.45
2023-01-22T00:46:24.122Z,8.42
2023-01-22T00:48:34.526Z,8.40
2023-01-22T00:50:44.417Z,8.37
2023-01-22T00:52:54.347Z,8.36
2023-01-22T00:55:06.740Z,8.35
2023-01-22T00:57:22.336Z,8.34
2023-01-22T00:59:32.587Z,8.33
2023-01-22T01:01:43.544Z,8.33
2023-01-22T01:03:53.556Z,8.32
2023-01-22T01:06:06.057Z,8.28
2023-01-22T01:08:18.846Z,8.28
2023-01-22T01:10:26.465Z,8.27
2023-01-22T01:12:36.345Z,8.24
2023-01-22T01:14:46.093Z,8.22
2023-01-22T01:16:58.381Z,8.20
2023-01-22T01:19:11.416Z,8.20
2023-01-22T01:21:21.451Z,8.20
2023-01-22T01:23:32.008Z,8.19
2023-01-22T01:25:45.820Z,8.17
2023-01-22T01:27:58.211Z,8.16
2023-01-22T01:30:09.771Z,8.16
2023-01-22T01:32:19.886Z,8.16
2023-01-22T01:34:29.684Z,8.15
2023-01-22T01:36:49.008Z,8.15
2023-01-22T01:39:01.280Z,8.15
2023-01-22T01:41:13.836Z,8.15
2023-01-22T01:43:24.166Z,8.15
2023-01-22T01:45:35.695Z,8.15
2023-01-22T01:47:45.687Z,8.13
2023-01-22T01:49:57.327Z,8.10
2023-01-22T01:52:11.455Z,8.11
2023-01-22T01:54:22.568Z,8.12
2023-01-22T01:56:37.375Z,8.12
2023-01-22T01:58:49.008Z,8.13
2023-01-22T02:01:08.045Z,8.13
2023-01-22T02:03:18.145Z,8.12
2023-01-22T02:05:32.898Z,8.13
2023-01-22T02:07:43.218Z,8.13
2023-01-22T02:09:53.152Z,8.10
2023-01-22T02:12:04.508Z,8.10
2023-01-22T02:14:19.857Z,8.07
2023-01-22T02:16:30.040Z,8.05
2023-01-22T02:18:40.148Z,8.05
2023-01-22T02:20:58.596Z,8.04
2023-01-22T02:23:10.765Z,8.02
2023-01-22T02:25:24.716Z,8.01
2023-01-22T02:27:35.821Z,8.01
2023-01-22T02:29:50.846Z,8.00
2023-01-22T02:32:01.819Z,8.01
2023-01-22T02:34:13.302Z,8.01
2023-01-22T02:36:23.669Z,8.02
2023-01-22T02:38:34.634Z,8.03
2023-01-22T02:40:49.596Z,8.02
2023-01-22T02:43:02.544Z,8.02
2023-01-22T02:45:14.785Z,8.03
2023-01-22T02:47:27.696Z,8.07
2023-01-22T02:49:37.580Z,8.09
2023-01-22T02:51:47.633Z,8.08
2023-01-22T02:53:58.187Z,8.09
2023-01-22T02:56:12.565Z,8.09
2023-01-22T02:58:22.382Z,8.11
2023-01-22T03:00:32.766Z,8.09
2023-01-22T03:02:42.795Z,8.08
2023-01-22T03:04:52.877Z,8.08
2023-01-22T03:07:03.012Z,8.09
2023-01-22T03:09:14.168Z,8.11
2023-01-22T03:11:24.628Z,8.14
2023-01-22T03:13:52.076Z,8.15
2023-01-22T03:16:22.111Z,8.17
2023-01-22T03:18:50.614Z,8.17
2023-01-22T03:21:20.800Z,8.16
2023-01-22T03:23:33.416Z,8.15
2023-01-22T03:25:43.465Z,8.15
2023-01-22T03:28:17.167Z,8.16
2023-01-22T03:30:31.726Z,8.17
2023-01-22T03:32:41.739Z,8.18
2023-01-22T03:34:52.525Z,8.20
2023-01-22T03:37:03.082Z,8.20
2023-01-22T03:39:13.247Z,8.20
2023-01-22T03:41:23.695Z,8.21
2023-01-22T03:43:35.293Z,8.21
2023-01-22T03:45:47.534Z,8.22
2023-01-22T03:47:59.376Z,8.22
2023-01-22T03:50:14.387Z,8.22
2023-01-22T03:52:24.215Z,8.23
2023-01-22T03:54:34.516Z,8.23
2023-01-22T03:56:46.526Z,8.22
2023-01-22T03:59:09.407Z,8.20
2023-01-22T04:01:21.843Z,8.19
2023-01-22T04:03:32.875Z,8.19
2023-01-22T04:05:43.067Z,8.19
2023-01-22T04:07:54.661Z,8.20
2023-01-22T04:10:09.787Z,8.21
2023-01-22T04:12:19.916Z,8.22
2023-01-22T04:14:30.277Z,8.24
2023-01-22T04:16:42.874Z,8.24
2023-01-22T04:19:11.750Z,8.25
2023-01-22T04:21:36.551Z,8.27
2023-01-22T04:23:48.117Z,8.28
2023-01-22T04:25:57.650Z,8.27
2023-01-22T04:28:09.171Z,8.29
2023-01-22T04:30:20.064Z,8.29
2023-01-22T04:32:32.427Z,8.29
2023-01-22T04:35:05.896Z,8.29
2023-01-22T04:37:28.530Z,8.29
2023-01-22T04:39:38.338Z,8.27
2023-01-22T04:41:49.550Z,8.26
2023-01-22T04:43:59.020Z,8.26
2023-01-22T04:46:12.543Z,8.25
2023-01-22T04:48:22.645Z,8.25
2023-01-22T04:50:34.667Z,8.25
2023-01-22T04:52:42.629Z,8.25
2023-01-22T04:54:54.358Z,8.26
2023-01-22T04:57:07.265Z,8.27
2023-01-22T04:59:17.133Z,8.24
2023-01-22T05:01:27.137Z,8.24
2023-01-22T05:03:36.759Z,8.25
2023-01-22T05:05:49.180Z,8.25
2023-01-22T05:08:00.249Z,8.25
2023-01-22T05:10:13.418Z,8.26
2023-01-22T05:12:21.311Z,8.25
2023-01-22T05:14:33.867Z,8.24
2023-01-22T05:16:44.996Z,8.23
2023-01-22T05:18:54.695Z,8.22
2023-01-22T05:21:04.531Z,8.23
2023-01-22T05:23:15.895Z,8.22
2023-01-22T05:25:25.971Z,8.22
2023-01-22T05:27:35.995Z,8.23
2023-01-22T05:29:52.405Z,8.23
2023-01-22T05:32:20.914Z,8.23
2023-01-22T05:34:36.973Z,8.24
2023-01-22T05:36:47.573Z,8.24
2023-01-22T05:38:59.655Z,8.22
2023-01-22T05:41:10.602Z,8.22
2023-01-22T05:43:21.935Z,8.22
2023-01-22T05:45:37.245Z,8.21
2023-01-22T05:48:05.013Z,8.20
2023-01-22T05:50:23.287Z,8.19
2023-01-22T05:52:44.111Z,8.17
2023-01-22T05:54:54.407Z,8.17
2023-01-22T05:57:04.511Z,8.14
2023-01-22T05:59:15.669Z,8.14
2023-01-22T06:01:29.467Z,8.13
2023-01-22T06:03:41.502Z,8.13
2023-01-22T06:06:00.535Z,8.13
2023-01-22T06:08:10.497Z,8.15
2023-01-22T06:10:27.686Z,8.11
2023-01-22T06:12:37.578Z,8.09
2023-01-22T06:14:47.743Z,8.07
2023-01-22T06:16:58.831Z,8.04
2023-01-22T06:19:22.970Z,8.05
2023-01-22T06:21:36.993Z,8.06
2023-01-22T06:23:47.336Z,8.07
2023-01-22T06:25:59.765Z,8.07
2023-01-22T06:28:09.445Z,8.08
2023-01-22T06:30:21.446Z,8.08
2023-01-22T06:32:31.535Z,8.07
2023-01-22T06:34:42.457Z,8.10
2023-01-22T06:36:52.915Z,8.12
2023-01-22T06:39:03.060Z,8.12
2023-01-22T06:41:19.901Z,8.07
2023-01-22T06:43:33.181Z,8.08
2023-01-22T06:45:43.888Z,8.09
2023-01-22T06:47:54.597Z,8.06
2023-01-22T06:50:05.395Z,8.05
2023-01-22T06:52:16.674Z,8.06
2023-01-22T06:54:26.878Z,8.07
2023-01-22T06:56:37.004Z,8.06
2023-01-22T06:58:47.215Z,8.06
2023-01-22T07:01:01.297Z,8.06
2023-01-22T07:03:14.009Z,8.06
2023-01-22T07:05:24.468Z,8.08
2023-01-22T07:07:34.967Z,8.09
2023-01-22T07:09:44.690Z,8.12
2023-01-22T07:11:57.856Z,8.12
2023-01-22T07:14:07.777Z,8.11
2023-01-22T07:16:17.720Z,8.09
2023-01-22T07:18:28.057Z,8.07
2023-01-22T07:20:38.881Z,8.07
2023-01-22T07:22:49.033Z,8.12
2023-01-22T07:24:59.290Z,8.13
2023-01-22T07:27:09.149Z,8.15
2023-01-22T07:29:19.787Z,8.14
2023-01-22T07:31:29.968Z,8.13
2023-01-22T07:33:40.387Z,8.11
2023-01-22T07:35:58.228Z,8.10
2023-01-22T07:38:08.448Z,8.09
2023-01-22T07:40:19.519Z,8.09
2023-01-22T07:42:30.057Z,8.08
2023-01-22T07:44:40.873Z,8.08
2023-01-22T07:46:50.711Z,8.10
2023-01-22T07:49:00.828Z,8.11
2023-01-22T07:51:13.030Z,8.08
2023-01-22T07:53:23.027Z,8.05
2023-01-22T07:55:33.098Z,8.04
2023-01-22T07:57:43.020Z,8.02
2023-01-22T07:59:53.386Z,8.03
2023-01-22T08:02:06.291Z,8.05
2023-01-22T08:04:17.063Z,8.05
2023-01-22T08:06:27.529Z,8.03
2023-01-22T08:08:37.151Z,8.02
2023-01-22T08:10:47.206Z,8.02
2023-01-22T08:12:57.256Z,8.01
2023-01-22T08:15:07.677Z,8.01
2023-01-22T08:17:17.909Z,8.00
2023-01-22T08:19:29.833Z,8.00
2023-01-22T08:21:39.836Z,8.00
2023-01-22T08:23:49.775Z,8.00
2023-01-22T08:26:02.236Z,8.01
2023-01-22T08:28:10.249Z,8.01
2023-01-22T08:30:20.840Z,8.02
2023-01-22T08:32:31.196Z,8.03
2023-01-22T08:34:41.466Z,8.03
2023-01-22T08:36:51.672Z,8.03
2023-01-22T08:39:01.758Z,8.03
2023-01-22T08:41:11.578Z,8.02
2023-01-22T08:43:21.509Z,8.02
2023-01-22T08:45:32.312Z,8.01
2023-01-22T08:47:42.547Z,7.96
2023-01-22T08:49:52.207Z,7.93
2023-01-22T08:52:02.394Z,7.90
2023-01-22T08:54:12.858Z,7.86
2023-01-22T08:56:23.627Z,7.85
2023-01-22T08:58:33.335Z,7.83
2023-01-22T09:00:44.894Z,7.83
2023-01-22T09:02:58.591Z,7.83
2023-01-22T09:05:09.946Z,7.82
2023-01-22T09:07:19.799Z,7.83
2023-01-22T09:09:29.556Z,7.83
2023-01-22T09:11:40.384Z,7.82
2023-01-22T09:13:51.556Z,7.83
2023-01-22T09:16:01.729Z,7.83
2023-01-22T09:18:11.361Z,7.84
2023-01-22T09:20:21.909Z,7.85
2023-01-22T09:22:31.817Z,7.86
2023-01-22T09:24:41.619Z,7.86
2023-01-22T09:26:51.455Z,7.86
2023-01-22T09:29:04.513Z,7.83
2023-01-22T09:31:16.593Z,7.82
2023-01-22T09:33:26.495Z,7.84
2023-01-22T09:35:37.084Z,7.85
2023-01-22T09:37:46.986Z,7.86
2023-01-22T09:39:57.045Z,7.86
2023-01-22T09:42:08.679Z,7.85
2023-01-22T09:44:24.476Z,7.85
2023-01-22T09:46:39.569Z,7.82
2023-01-22T09:48:53.918Z,7.81
2023-01-22T09:51:04.637Z,7.79
2023-01-22T09:53:19.227Z,7.78
2023-01-22T09:55:32.667Z,7.78
2023-01-22T09:57:46.416Z,7.78
2023-01-22T09:59:58.734Z,7.76
2023-01-22T10:02:25.640Z,7.76
2023-01-22T10:04:41.556Z,7.77
2023-01-22T10:06:53.147Z,7.75
2023-01-22T10:09:14.660Z,7.74
2023-01-22T10:11:25.129Z,7.71
2023-01-22T10:13:37.610Z,7.70
2023-01-22T10:15:45.520Z,7.67
2023-01-22T10:17:57.040Z,7.65
2023-01-22T10:20:14.367Z,7.62
2023-01-22T10:22:26.324Z,7.62
2023-01-22T10:24:36.228Z,7.61
2023-01-22T10:26:50.486Z,7.62
2023-01-22T10:29:06.919Z,7.64
2023-01-22T10:31:28.678Z,7.64
2023-01-22T10:33:44.814Z,7.65
2023-01-22T10:35:56.719Z,7.67
2023-01-22T10:38:06.896Z,7.66
2023-01-22T10:40:27.570Z,7.68
2023-01-22T10:42:37.426Z,7.69
2023-01-22T10:44:47.582Z,7.68
2023-01-22T10:47:09.306Z,7.68
2023-01-22T10:49:22.579Z,7.67
2023-01-22T10:51:36.591Z,7.66
2023-01-22T10:53:54.125Z,7.66
2023-01-22T10:56:04.870Z,7.66
2023-01-22T10:58:21.770Z,7.64
2023-01-22T11:00:51.981Z,7.65
2023-01-22T11:03:02.860Z,7.62
2023-01-22T11:05:29.716Z,7.61
2023-01-22T11:07:40.620Z,7.59
2023-01-22T11:09:57.527Z,7.59
2023-01-22T11:12:17.601Z,7.57
2023-01-22T11:14:31.744Z,7.57
2023-01-22T11:16:42.847Z,7.58
2023-01-22T11:18:59.945Z,7.57
2023-01-22T11:21:16.206Z,7.56
2023-01-22T11:23:35.295Z,7.54
2023-01-22T11:25:55.349Z,7.53
2023-01-22T11:28:18.448Z,7.52
2023-01-22T11:30:52.524Z,7.51
2023-01-22T11:33:14.435Z,7.51
2023-01-22T11:35:30.540Z,7.51
2023-01-22T11:37:53.846Z,7.49
2023-01-22T11:40:19.786Z,7.47
2023-01-22T11:42:45.815Z,7.46
2023-01-22T11:45:08.246Z,7.45
2023-01-22T11:47:32.156Z,7.45
2023-01-22T11:49:56.212Z,7.43
2023-01-22T11:52:17.666Z,7.39
2023-01-22T11:54:41.552Z,7.35
2023-01-22T11:57:09.308Z,7.34
2023-01-22T11:59:32.656Z,7.33
2023-01-22T12:01:58.955Z,7.34
2023-01-22T12:04:36.947Z,7.31
2023-01-22T12:07:12.345Z,7.28
2023-01-22T12:09:26.895Z,7.25
2023-01-22T12:11:54.878Z,7.19
2023-01-22T12:14:33.338Z,7.07
2023-01-22T12:16:53.246Z,6.90
2023-01-22T12:19:22.715Z,6.82
2023-01-22T12:21:47.155Z,6.70
2023-01-22T12:24:04.068Z,6.59
2023-01-22T12:26:16.859Z,6.51
2023-01-22T12:28:30.352Z,6.43
2023-01-22T12:30:49.735Z,6.44
2023-01-22T12:33:05.154Z,6.47
2023-01-22T12:35:20.200Z,6.40
2023-01-22T12:37:36.204Z,6.33
2023-01-22T12:40:00.976Z,6.24
2023-01-22T12:42:24.948Z,6.18
2023-01-22T12:44:51.396Z,6.12
2023-01-22T12:47:09.626Z,6.08
2023-01-22T12:49:21.545Z,6.07
2023-01-22T12:51:38.115Z,6.05
2023-01-22T12:53:47.769Z,6.03
2023-01-22T12:56:06.931Z,5.99
2023-01-22T12:58:26.915Z,6.06
2023-01-22T13:00:39.557Z,6.09
2023-01-22T13:02:49.226Z,6.02
2023-01-22T13:05:11.305Z,5.99
2023-01-22T13:07:26.089Z,6.05
2023-01-22T13:09:40.092Z,6.18
2023-01-22T13:11:49.978Z,6.18
2023-01-22T13:14:14.736Z,6.13
2023-01-22T13:16:30.544Z,6.11
2023-01-22T13:18:49.642Z,6.13
2023-01-22T13:21:04.470Z,6.09
2023-01-22T13:23:18.946Z,6.04
2023-01-22T13:25:32.725Z,5.97
2023-01-22T13:27:48.715Z,5.93
2023-01-22T13:30:11.197Z,5.93
2023-01-22T13:32:24.534Z,5.93
2023-01-22T13:34:35.225Z,5.93
2023-01-22T13:36:52.799Z,5.90
2023-01-22T13:39:03.015Z,5.86
2023-01-22T13:41:20.470Z,5.83
2023-01-22T13:43:31.925Z,5.79
2023-01-22T13:45:44.416Z,5.76
2023-01-22T13:47:58.177Z,5.71
2023-01-22T13:50:08.747Z,5.68
2023-01-22T13:52:21.047Z,5.71
2023-01-22T13:54:36.237Z,5.72
2023-01-22T13:56:46.396Z,5.75
2023-01-22T13:59:06.157Z,5.75
2023-01-22T14:01:27.771Z,5.73
2023-01-22T14:03:37.887Z,5.70
2023-01-22T14:05:49.519Z,5.68
2023-01-22T14:08:10.369Z,5.64
2023-01-22T14:10:22.239Z,5.64
2023-01-22T14:12:31.887Z,5.65
2023-01-22T14:14:44.938Z,5.65
2023-01-22T14:16:55.114Z,5.64
2023-01-22T14:19:06.290Z,5.64
2023-01-22T14:21:16.138Z,5.63
2023-01-22T14:23:25.863Z,5.62
2023-01-22T14:25:38.372Z,5.65
2023-01-22T14:27:50.316Z,5.75
2023-01-22T14:30:00.459Z,5.89
2023-01-22T14:32:11.297Z,6.07
2023-01-22T14:34:21.868Z,6.23
2023-01-22T14:36:31.705Z,6.29
2023-01-22T14:38:41.437Z,6.32
2023-01-22T14:40:51.076Z,6.34
2023-01-22T14:43:03.677Z,6.36
2023-01-22T14:45:16.632Z,6.39
2023-01-22T14:47:27.336Z,6.42
2023-01-22T14:49:37.509Z,6.43
2023-01-22T14:51:48.071Z,6.44
2023-01-22T14:53:58.839Z,6.43
2023-01-22T14:56:09.010Z,6.41
2023-01-22T14:58:19.055Z,6.38
2023-01-22T15:00:30.240Z,6.32
2023-01-22T15:02:40.480Z,6.24
2023-01-22T15:04:50.620Z,6.15
2023-01-22T15:07:00.479Z,6.07
2023-01-22T15:09:10.352Z,6.01
2023-01-22T15:11:20.028Z,5.96
2023-01-22T15:13:30.302Z,5.89
2023-01-22T15:15:40.354Z,5.84
2023-01-22T15:17:50.725Z,5.81
2023-01-22T15:20:00.559Z,5.77
2023-01-22T15:22:10.497Z,5.74
2023-01-22T15:24:20.639Z,5.72
2023-01-22T15:26:32.977Z,5.68
2023-01-22T15:28:42.929Z,5.66
2023-01-22T15:30:54.294Z,5.65
2023-01-22T15:33:04.526Z,5.65
2023-01-22T15:35:14.901Z,5.65
2023-01-22T15:37:25.640Z,5.65
2023-01-22T15:39:35.695Z,5.64
2023-01-22T15:41:45.887Z,5.63
2023-01-22T15:44:01.025Z,5.62
2023-01-22T15:46:11.196Z,5.62
2023-01-22T15:48:21.416Z,5.62
2023-01-22T15:50:31.831Z,5.61
2023-01-22T15:52:41.446Z,5.60
2023-01-22T15:54:53.918Z,5.58
2023-01-22T15:57:04.176Z,5.56
2023-01-22T15:59:14.729Z,5.54
2023-01-22T16:01:26.115Z,5.52
2023-01-22T16:03:36.206Z,5.52
2023-01-22T16:05:45.958Z,5.51
2023-01-22T16:07:55.747Z,5.51
2023-01-22T16:10:06.608Z,5.52
2023-01-22T16:12:16.888Z,5.52
2023-01-22T16:14:28.938Z,5.53
2023-01-22T16:16:40.287Z,5.55
2023-01-22T16:18:51.769Z,5.55
2023-01-22T16:21:04.781Z,5.55
2023-01-22T16:23:14.595Z,5.55
2023-01-22T16:25:24.336Z,5.56
2023-01-22T16:27:34.967Z,5.56
2023-01-22T16:29:45.276Z,5.58
2023-01-22T16:31:55.059Z,5.61
2023-01-22T16:34:10.307Z,5.62
2023-01-22T16:36:22.091Z,5.65
2023-01-22T16:38:32.646Z,5.67
2023-01-22T16:40:43.209Z,5.70
2023-01-22T16:43:03.209Z,5.72
2023-01-22T16:45:14.017Z,5.74
2023-01-22T16:47:24.345Z,5.75
2023-01-22T16:49:36.016Z,5.77
2023-01-22T16:51:47.940Z,5.77
2023-01-22T16:53:58.386Z,5.78
2023-01-22T16:56:09.036Z,5.80
2023-01-22T16:58:19.497Z,5.83
2023-01-22T17:00:29.565Z,5.86
2023-01-22T17:02:38.684Z,5.87
2023-01-22T17:04:48.821Z,5.91
2023-01-22T17:07:00.706Z,5.92
2023-01-22T17:09:14.167Z,5.91
2023-01-22T17:11:24.788Z,5.93
2023-01-22T17:13:34.855Z,5.95
2023-01-22T17:15:47.999Z,5.98
2023-01-22T17:17:58.332Z,6.00
2023-01-22T17:20:08.866Z,6.03
2023-01-22T17:22:18.626Z,6.05
2023-01-22T17:24:28.885Z,6.08
2023-01-22T17:26:39.273Z,6.11
2023-01-22T17:28:49.515Z,6.15
2023-01-22T17:30:59.286Z,6.19
2023-01-22T17:33:09.284Z,6.25
2023-01-22T17:35:19.979Z,6.33
2023-01-22T17:37:29.896Z,6.43
2023-01-22T17:39:39.847Z,6.51
2023-01-22T17:41:50.097Z,6.55
2023-01-22T17:44:00.486Z,6.59
2023-01-22T17:46:14.253Z,6.63
2023-01-22T17:48:23.978Z,6.69
2023-01-22T17:50:33.786Z,6.75
2023-01-22T17:52:44.535Z,6.81
2023-01-22T17:54:56.716Z,6.86
2023-01-22T17:57:06.895Z,6.89
2023-01-22T17:59:17.263Z,6.90
2023-01-22T18:01:30.509Z,6.93
2023-01-22T18:03:41.215Z,6.95
2023-01-22T18:05:55.268Z,6.96
2023-01-22T18:08:05.137Z,6.96
2023-01-22T18:10:16.713Z,6.97
2023-01-22T18:12:27.086Z,6.97
2023-01-22T18:14:36.775Z,6.98
2023-01-22T18:16:47.324Z,7.02
2023-01-22T18:18:57.626Z,7.08
2023-01-22T18:21:09.398Z,7.15
2023-01-22T18:23:20.999Z,7.21
2023-01-22T18:25:30.607Z,7.26
2023-01-22T18:27:40.578Z,7.33
2023-01-22T18:29:50.515Z,7.38
2023-01-22T18:32:01.541Z,7.46
2023-01-22T18:34:15.562Z,7.50
2023-01-22T18:36:26.595Z,7.55
2023-01-22T18:38:37.438Z,7.59
2023-01-22T18:40:47.444Z,7.64
2023-01-22T18:42:57.436Z,7.68
2023-01-22T18:45:08.021Z,7.71
2023-01-22T18:47:17.847Z,7.76
2023-01-22T18:49:28.645Z,7.81
2023-01-22T18:51:39.186Z,7.87
2023-01-22T18:53:49.210Z,7.91
2023-01-22T18:56:02.964Z,7.96
2023-01-22T18:58:22.395Z,8.02
2023-01-22T19:00:32.215Z,8.07
2023-01-22T19:02:42.490Z,8.12
2023-01-22T19:04:54.285Z,8.17
2023-01-22T19:07:04.308Z,8.23
2023-01-22T19:09:15.416Z,8.30
2023-01-22T19:11:26.957Z,8.32
2023-01-22T19:13:37.035Z,8.34
2023-01-22T19:15:46.772Z,8.34
2023-01-22T19:17:56.497Z,8.36
2023-01-22T19:20:09.017Z,8.40
2023-01-22T19:22:19.296Z,8.44
2023-01-22T19:24:29.064Z,8.48
2023-01-22T19:26:39.960Z,8.51
2023-01-22T19:28:49.915Z,8.55
2023-01-22T19:30:59.796Z,8.61
2023-01-22T19:33:09.735Z,8.68
2023-01-22T19:35:20.700Z,8.72
2023-01-22T19:37:31.683Z,8.75
2023-01-22T19:39:41.729Z,8.80
2023-01-22T19:41:52.229Z,8.84
2023-01-22T19:44:03.476Z,8.89
2023-01-22T19:46:16.170Z,8.94
2023-01-22T19:48:26.905Z,8.99
2023-01-22T19:50:36.773Z,9.05
2023-01-22T19:52:46.736Z,9.07
2023-01-22T19:54:56.759Z,9.08
2023-01-22T19:57:06.496Z,9.10
2023-01-22T19:59:19.214Z,9.11
2023-01-22T20:01:29.376Z,9.11
2023-01-22T20:03:38.996Z,9.11
2023-01-22T20:05:48.811Z,9.09
2023-01-22T20:08:01.592Z,9.08
2023-01-22T20:10:14.528Z,9.07
2023-01-22T20:12:24.656Z,9.09
2023-01-22T20:14:38.346Z,9.11
2023-01-22T20:16:48.096Z,9.10
2023-01-22T20:18:59.153Z,9.10
2023-01-22T20:21:09.385Z,9.09
2023-01-22T20:23:19.370Z,9.11
2023-01-22T20:25:31.376Z,9.09
2023-01-22T20:27:41.585Z,9.07
2023-01-22T20:29:51.366Z,9.06
2023-01-22T20:32:01.209Z,9.09
2023-01-22T20:34:11.395Z,9.11
2023-01-22T20:36:21.697Z,9.14
2023-01-22T20:38:32.486Z,9.16
2023-01-22T20:40:46.668Z,9.15
2023-01-22T20:42:57.086Z,9.11
2023-01-22T20:45:08.435Z,9.06
2023-01-22T20:47:18.420Z,9.04
2023-01-22T20:49:28.076Z,8.98
2023-01-22T20:51:38.787Z,8.94
2023-01-22T20:53:49.387Z,8.94
2023-01-22T20:56:07.858Z,8.92
2023-01-22T20:58:18.285Z,8.87
2023-01-22T21:00:28.355Z,8.83
2023-01-22T21:02:38.475Z,8.81
2023-01-22T21:04:48.706Z,8.78
2023-01-22T21:06:59.266Z,8.71
2023-01-22T21:09:11.038Z,8.67
2023-01-22T21:11:22.435Z,8.66
2023-01-22T21:13:33.041Z,8.65
2023-01-22T21:15:43.468Z,8.63
2023-01-22T21:17:55.325Z,8.64
2023-01-22T21:20:06.715Z,8.67
2023-01-22T21:22:16.684Z,8.68
2023-01-22T21:24:27.417Z,8.72
2023-01-22T21:26:37.475Z,8.73
2023-01-22T21:28:48.705Z,8.73
2023-01-22T21:30:58.696Z,8.73
2023-01-22T21:33:09.013Z,8.75
2023-01-22T21:35:19.270Z,8.78
2023-01-22T21:37:29.516Z,8.78
2023-01-22T21:39:45.507Z,8.79
2023-01-22T21:42:16.927Z,8.82
2023-01-22T21:44:46.471Z,8.82
2023-01-22T21:46:56.715Z,8.82
2023-01-22T21:49:17.896Z,8.85
2023-01-22T21:51:28.856Z,8.84
2023-01-22T21:53:39.089Z,8.84
2023-01-22T21:55:55.594Z,8.85
2023-01-22T21:58:07.782Z,8.86
2023-01-22T22:00:20.522Z,8.88
2023-01-22T22:02:30.364Z,8.89
2023-01-22T22:04:40.415Z,8.90
2023-01-22T22:06:50.864Z,8.92
2023-01-22T22:09:01.910Z,8.92
2023-01-22T22:11:12.105Z,8.94
2023-01-22T22:13:22.737Z,8.99
2023-01-22T22:15:33.580Z,9.08
2023-01-22T22:17:46.811Z,9.17
2023-01-22T22:19:57.786Z,9.24
2023-01-22T22:22:08.525Z,9.31
2023-01-22T22:24:19.476Z,9.38
2023-01-22T22:26:29.985Z,9.44
2023-01-22T22:28:40.226Z,9.50
2023-01-22T22:30:50.409Z,9.57
2023-01-22T22:33:00.466Z,9.59
2023-01-22T22:35:11.582Z,9.59
2023-01-22T22:37:21.445Z,9.56
2023-01-22T22:39:31.387Z,9.54
2023-01-22T22:41:41.455Z,9.54
2023-01-22T22:43:55.666Z,9.54
2023-01-22T22:46:10.385Z,9.51
2023-01-22T22:48:21.547Z,9.49
2023-01-22T22:50:31.468Z,9.48
2023-01-22T22:52:41.307Z,9.50
2023-01-22T22:54:51.438Z,9.52
2023-01-22T22:57:01.297Z,9.52
2023-01-22T22:59:11.346Z,9.51
2023-01-22T23:01:22.627Z,9.50
2023-01-22T23:03:34.147Z,9.50
2023-01-22T23:05:44.008Z,9.50
2023-01-22T23:07:54.226Z,9.52
2023-01-22T23:10:04.686Z,9.49
2023-01-22T23:12:15.523Z,9.46
2023-01-22T23:14:25.223Z,9.44
2023-01-22T23:16:38.299Z,9.37
2023-01-22T23:18:48.682Z,9.28
2023-01-22T23:20:58.832Z,9.20
2023-01-22T23:23:08.957Z,9.14
2023-01-22T23:25:19.687Z,9.13
2023-01-22T23:27:30.812Z,9.12
2023-01-22T23:29:40.546Z,9.11
2023-01-22T23:31:51.288Z,9.11
2023-01-22T23:34:02.891Z,9.12
2023-01-22T23:36:15.556Z,9.11
2023-01-22T23:38:25.314Z,9.11
2023-01-22T23:40:35.267Z,9.09
2023-01-22T23:42:49.137Z,9.08
2023-01-22T23:44:58.988Z,9.05
2023-01-22T23:47:08.811Z,9.02
2023-01-22T23:49:18.993Z,8.99
2023-01-22T23:51:29.446Z,8.96
2023-01-22T23:53:42.099Z,8.95
2023-01-22T23:55:49.770Z,8.92
2023-01-22T23:57:59.617Z,8.90
